首页
METAR-TAF:

METAR-TAF

机场 :

水牛城, 紐約州, 美国

纬度: 42-56-27N, 经度: 078-44-09W, 海拔: 220米

当前天气观测

该预报发布于18分钟前的14:54 UTC
风速12节,风向东南
温度 5°C
湿度 65%
气压 1006 hPa
能見度: 16.1公里
少量云层高于10000英尺
多云层高于13000英尺
阴天层高于23000英尺

METAR: KBUF 151454Z 13012KT 10SM FEW100 BKN130 OVC230 05/M01 A2972 RMK AO2 SLP071 T00501006 56012 $

时间: 10:12 (15:12 UTC)

预报

该预报发布于7分钟前的15:05 UTC
预报有效从15日的 15点(UTC)到 16日的 12点(UTC)
风速12节,风向东南
能見度: 10公里
阴天层高于20000英尺
从 15日的 1800点(UTC)
风速12节,风向东转东南,有时为22节阵风
能見度: 10公里
多云层高于20000英尺
从 15日的 2200点(UTC)
风速11节,风向东转东南
能見度: 10公里
阴天层高于3000英尺
附近有阵雨
从 16日的 0100点(UTC)
风速7节,风向东南
能見度: 4.8公里
阴天层高于700英尺
小雨, 雪, 轻雾
从 16日的 0600点(UTC)
风速6节,风向西南
能見度: 10公里
阴天层高于700英尺

TAF: KBUF 151505Z 1515/1612 13012KT P6SM OVC200 FM151800 12012G22KT P6SM BKN200 FM152200 11011KT P6SM VCSH OVC030 FM160100 14007KT 3SM -RASN BR OVC007 FM160600 22006KT P6SM OVC007

超过4000个机场的气象观测和天气预报(METAR&TAF报告)。

可查询的气象台以黄色和红色小点在地图上表示。

将鼠标移到小点上方,可查看气象台名称。

然后点击查看天气观测和预报。

如需切换地图:点击带黑十字的绿色按钮放大地图;点击带横线的绿色按钮缩小地图;或者点击绿色箭头查看邻近地区的地图。


METAR-TAF: